createdAt,value
2018-04-25T00:01:19.590Z,2.70
2018-04-25T00:03:47.059Z,2.70
2018-04-25T00:06:14.516Z,2.00
2018-04-25T00:08:41.956Z,2.40
2018-04-25T00:11:09.403Z,1.80
2018-04-25T00:13:36.847Z,3.47
2018-04-25T00:16:05.117Z,2.60
2018-04-25T00:18:32.504Z,3.07
2018-04-25T00:20:59.950Z,2.47
2018-04-25T00:23:27.410Z,2.77
2018-04-25T00:25:54.843Z,2.60
2018-04-25T00:28:22.289Z,2.30
2018-04-25T00:30:49.924Z,2.80
2018-04-25T00:33:17.376Z,2.50
2018-04-25T00:35:44.850Z,2.80
2018-04-25T00:38:12.282Z,3.10
2018-04-25T00:40:39.755Z,3.70
2018-04-25T00:43:07.197Z,3.00
2018-04-25T00:45:34.656Z,2.77
2018-04-25T00:48:02.079Z,3.57
2018-04-25T00:50:29.516Z,2.80
2018-04-25T00:52:56.992Z,2.50
2018-04-25T00:55:25.225Z,2.97
2018-04-25T00:57:52.691Z,2.53
2018-04-25T01:00:20.135Z,2.63
2018-04-25T01:02:47.572Z,2.80
2018-04-25T01:05:15.896Z,2.67
2018-04-25T01:07:43.332Z,2.67
2018-04-25T01:10:11.542Z,4.20
2018-04-25T01:12:38.996Z,3.03
2018-04-25T01:15:06.428Z,3.13
2018-04-25T01:17:33.887Z,2.73
2018-04-25T01:20:02.809Z,3.00
2018-04-25T01:22:30.252Z,3.23
2018-04-25T01:25:01.739Z,2.63
2018-04-25T01:27:34.669Z,2.43
2018-04-25T01:30:02.130Z,2.30
2018-04-25T01:32:30.376Z,2.80
2018-04-25T01:34:58.705Z,3.50
2018-04-25T01:37:38.533Z,3.40
2018-04-25T01:40:09.191Z,3.33
2018-04-25T01:42:56.807Z,3.43
2018-04-25T01:45:44.819Z,3.10
2018-04-25T01:48:20.616Z,2.90
2018-04-25T01:50:57.553Z,4.37
2018-04-25T01:53:36.812Z,3.70
2018-04-25T01:56:16.068Z,3.47
2018-04-25T01:58:55.381Z,3.20
2018-04-25T02:01:22.367Z,4.57
2018-04-25T02:03:56.346Z,3.40
2018-04-25T02:06:24.123Z,1.93
2018-04-25T02:08:51.613Z,2.93
2018-04-25T02:11:19.094Z,2.63
2018-04-25T02:13:47.293Z,2.63
2018-04-25T02:16:14.751Z,3.03
2018-04-25T02:18:42.211Z,4.10
2018-04-25T02:21:09.664Z,2.70
2018-04-25T02:23:37.130Z,2.57
2018-04-25T02:26:04.586Z,3.30
2018-04-25T02:28:32.034Z,2.93
2018-04-25T02:30:59.468Z,2.77
2018-04-25T02:33:26.924Z,2.47
2018-04-25T02:35:54.389Z,3.93
2018-04-25T02:38:21.945Z,3.87
2018-04-25T02:40:49.492Z,2.23
2018-04-25T02:43:16.940Z,2.80
2018-04-25T02:45:44.385Z,2.57
2018-04-25T02:48:12.083Z,3.50
2018-04-25T02:50:39.672Z,3.00
2018-04-25T02:53:07.155Z,4.17
2018-04-25T02:55:34.587Z,4.03
2018-04-25T02:58:02.455Z,3.00
2018-04-25T03:00:30.320Z,2.70
2018-04-25T03:02:57.814Z,3.03
2018-04-25T03:05:25.481Z,3.07
2018-04-25T03:07:52.913Z,3.13
2018-04-25T03:10:20.455Z,3.70
2018-04-25T03:12:48.075Z,2.00
2018-04-25T03:15:15.531Z,2.97
2018-04-25T03:17:42.975Z,3.60
2018-04-25T03:20:10.434Z,1.70
2018-04-25T03:22:37.997Z,2.90
2018-04-25T03:25:05.470Z,2.97
2018-04-25T03:27:32.906Z,2.67
2018-04-25T03:30:00.364Z,2.20
2018-04-25T03:32:27.848Z,3.53
2018-04-25T03:34:55.516Z,3.50
2018-04-25T03:37:22.967Z,2.60
2018-04-25T03:39:50.410Z,2.97
2018-04-25T03:42:17.882Z,3.03
2018-04-25T03:44:45.322Z,3.20
2018-04-25T03:47:13.104Z,3.60
2018-04-25T03:49:40.554Z,4.13
2018-04-25T03:52:08.021Z,3.30
2018-04-25T03:54:35.459Z,3.30
2018-04-25T03:57:02.896Z,3.13
2018-04-25T03:59:31.100Z,4.70
2018-04-25T04:01:58.565Z,2.80
2018-04-25T04:04:29.082Z,2.77
2018-04-25T04:06:56.663Z,3.47
2018-04-25T04:09:24.113Z,3.57
2018-04-25T04:11:51.648Z,4.97
2018-04-25T04:14:19.145Z,3.70
2018-04-25T04:16:46.889Z,3.60
2018-04-25T04:19:14.359Z,4.53
2018-04-25T04:21:41.820Z,3.83
2018-04-25T04:24:09.287Z,3.33
2018-04-25T04:26:37.190Z,3.30
2018-04-25T04:29:04.660Z,4.10
2018-04-25T04:31:32.179Z,3.40
2018-04-25T04:33:59.645Z,3.60
2018-04-25T04:36:27.105Z,3.63
2018-04-25T04:38:55.344Z,3.63
2018-04-25T04:41:22.832Z,3.70
2018-04-25T04:43:50.309Z,3.80
2018-04-25T04:46:18.537Z,5.03
2018-04-25T04:48:45.996Z,4.00
2018-04-25T04:51:13.618Z,3.90
2018-04-25T04:53:41.107Z,3.53
2018-04-25T04:56:08.573Z,3.70
2018-04-25T04:58:36.046Z,3.47
2018-04-25T05:01:03.860Z,4.20
2018-04-25T05:03:32.268Z,3.77
2018-04-25T05:05:59.715Z,5.40
2018-04-25T05:08:27.628Z,4.13
2018-04-25T05:10:55.045Z,3.70
2018-04-25T05:13:22.501Z,4.00
2018-04-25T05:15:54.352Z,3.13
2018-04-25T05:18:22.380Z,4.90
2018-04-25T05:20:49.843Z,3.40
2018-04-25T05:23:17.460Z,3.10
2018-04-25T05:25:44.924Z,4.10
2018-04-25T05:28:16.116Z,5.30
2018-04-25T05:30:43.736Z,3.70
2018-04-25T05:33:11.208Z,2.93
2018-04-25T05:35:39.440Z,3.70
2018-04-25T05:38:07.245Z,3.43
2018-04-25T05:40:34.719Z,4.20
2018-04-25T05:43:02.949Z,4.37
2018-04-25T05:45:30.699Z,3.20
2018-04-25T05:47:58.168Z,3.80
2018-04-25T05:50:25.633Z,3.20
2018-04-25T05:52:53.112Z,3.70
2018-04-25T05:55:20.851Z,3.70
2018-04-25T05:57:48.387Z,3.07
2018-04-25T06:00:15.799Z,3.53
2018-04-25T06:02:43.273Z,3.27
2018-04-25T06:05:10.752Z,3.33
2018-04-25T06:07:38.220Z,4.93
2018-04-25T06:10:06.464Z,4.13
2018-04-25T06:12:33.991Z,3.90
2018-04-25T06:15:01.774Z,3.33
2018-04-25T06:17:29.807Z,3.13
2018-04-25T06:19:57.272Z,3.37
2018-04-25T06:22:25.011Z,3.33
2018-04-25T06:24:52.500Z,3.13
2018-04-25T06:27:19.973Z,3.00
2018-04-25T06:29:47.544Z,3.80
2018-04-25T06:32:16.405Z,3.73
2018-04-25T06:34:44.092Z,3.50
2018-04-25T06:37:11.557Z,3.47
2018-04-25T06:39:39.024Z,3.70
2018-04-25T06:42:06.922Z,3.10
2018-04-25T06:44:34.382Z,3.20
2018-04-25T06:47:01.862Z,3.73
2018-04-25T06:49:30.763Z,3.53
2018-04-25T06:51:58.228Z,3.13
2018-04-25T06:54:26.223Z,3.27
2018-04-25T06:56:53.684Z,3.20
2018-04-25T06:59:21.163Z,3.00
2018-04-25T07:01:48.648Z,3.20
2018-04-25T07:04:16.119Z,4.60
2018-04-25T07:06:43.594Z,3.10
2018-04-25T07:09:11.056Z,3.67
2018-04-25T07:11:38.697Z,4.33
2018-04-25T07:14:06.269Z,3.40
2018-04-25T07:16:33.956Z,2.80
2018-04-25T07:19:01.433Z,4.17
2018-04-25T07:21:29.069Z,2.87
2018-04-25T07:23:56.590Z,4.10
2018-04-25T07:26:28.673Z,4.30
2018-04-25T07:28:56.266Z,4.13
2018-04-25T07:31:23.728Z,3.30
2018-04-25T07:33:51.201Z,3.50
2018-04-25T07:36:18.913Z,4.47
2018-04-25T07:38:46.380Z,3.80
2018-04-25T07:41:13.836Z,2.87
2018-04-25T07:43:41.322Z,3.90
2018-04-25T07:46:09.013Z,3.83
2018-04-25T07:48:36.478Z,4.43
2018-04-25T07:51:04.217Z,3.77
2018-04-25T07:53:31.684Z,4.17
2018-04-25T07:55:59.496Z,4.20
2018-04-25T07:58:27.730Z,3.63
2018-04-25T08:00:55.469Z,6.60
2018-04-25T08:03:22.936Z,4.40
2018-04-25T08:05:50.412Z,4.43
2018-04-25T08:08:17.884Z,3.90
2018-04-25T08:10:45.361Z,4.17
2018-04-25T08:13:24.667Z,4.60
2018-04-25T08:16:04.044Z,4.50
2018-04-25T08:18:43.329Z,4.97
2018-04-25T08:21:36.509Z,4.27
2018-04-25T08:24:04.760Z,5.23
2018-04-25T08:26:32.494Z,5.67
2018-04-25T08:29:00.025Z,4.17
2018-04-25T08:31:27.495Z,5.60
2018-04-25T08:33:54.962Z,4.27
2018-04-25T08:36:22.445Z,5.10
2018-04-25T08:38:49.925Z,5.10
2018-04-25T08:41:17.740Z,3.97
2018-04-25T08:43:45.596Z,5.80
2018-04-25T08:46:13.476Z,5.20
2018-04-25T08:48:41.239Z,4.63
2018-04-25T08:51:08.753Z,4.87
2018-04-25T08:53:36.221Z,5.60
2018-04-25T08:56:03.882Z,6.30
2018-04-25T08:58:32.108Z,5.20
2018-04-25T09:01:01.105Z,4.97
2018-04-25T09:03:28.876Z,5.90
2018-04-25T09:05:56.352Z,4.00
2018-04-25T09:08:24.207Z,5.47
2018-04-25T09:10:51.675Z,5.20
2018-04-25T09:13:19.954Z,5.20
2018-04-25T09:15:47.390Z,4.03
2018-04-25T09:18:14.880Z,5.50
2018-04-25T09:20:42.445Z,4.80
2018-04-25T09:23:09.908Z,4.90
2018-04-25T09:25:37.837Z,4.87
2018-04-25T09:28:05.292Z,5.63
2018-04-25T09:30:32.791Z,4.20
2018-04-25T09:33:00.360Z,5.23
2018-04-25T09:35:27.869Z,4.70
2018-04-25T09:37:55.340Z,3.93
2018-04-25T09:40:22.804Z,3.80
2018-04-25T09:42:50.288Z,5.07
2018-04-25T09:45:17.764Z,4.47
2018-04-25T09:47:45.240Z,4.10
2018-04-25T09:50:12.722Z,4.50
2018-04-25T09:52:40.260Z,4.30
2018-04-25T09:55:07.737Z,4.57
2018-04-25T09:57:35.286Z,5.33
2018-04-25T10:00:02.650Z,4.10
2018-04-25T10:02:33.272Z,4.60
2018-04-25T10:05:02.236Z,4.07
2018-04-25T10:07:29.792Z,4.40
2018-04-25T10:09:57.316Z,4.70
2018-04-25T10:12:24.780Z,4.10
2018-04-25T10:14:52.578Z,4.40
2018-04-25T10:17:20.135Z,4.10
2018-04-25T10:19:47.560Z,3.43
2018-04-25T10:22:15.038Z,3.00
2018-04-25T10:24:42.504Z,4.50
2018-04-25T10:27:09.987Z,4.30
2018-04-25T10:29:37.456Z,3.77
2018-04-25T10:32:04.951Z,5.10
2018-04-25T10:34:32.733Z,4.63
2018-04-25T10:37:00.204Z,5.47
2018-04-25T10:39:30.269Z,5.40
2018-04-25T10:41:57.724Z,4.60
2018-04-25T10:44:25.865Z,4.67
2018-04-25T10:46:53.336Z,5.00
2018-04-25T10:49:22.251Z,4.60
2018-04-25T10:51:50.038Z,4.40
2018-04-25T10:54:17.506Z,4.63
2018-04-25T10:56:44.980Z,4.17
2018-04-25T10:59:12.445Z,4.83
2018-04-25T11:01:39.916Z,3.93
2018-04-25T11:04:07.612Z,4.20
2018-04-25T11:06:35.106Z,4.30
2018-04-25T11:09:02.581Z,4.47
2018-04-25T11:11:30.151Z,3.20
2018-04-25T11:13:57.605Z,3.63
2018-04-25T11:16:25.086Z,4.80
2018-04-25T11:18:52.565Z,3.30
2018-04-25T11:21:20.692Z,4.33
2018-04-25T11:23:48.149Z,3.97
2018-04-25T11:26:15.613Z,3.20
2018-04-25T11:28:43.096Z,3.67
2018-04-25T11:31:10.556Z,3.13
2018-04-25T11:33:38.309Z,5.03
2018-04-25T11:36:05.834Z,2.73
2018-04-25T11:38:33.296Z,2.47
2018-04-25T11:41:01.000Z,3.80
2018-04-25T11:43:28.468Z,3.50
2018-04-25T11:45:55.952Z,3.33
2018-04-25T11:48:23.944Z,3.87
2018-04-25T11:50:51.715Z,3.53
2018-04-25T11:53:19.583Z,2.87
2018-04-25T11:55:47.052Z,3.37
2018-04-25T11:58:14.540Z,3.70
2018-04-25T12:00:42.018Z,3.90
2018-04-25T12:03:09.646Z,3.70
2018-04-25T12:05:37.332Z,3.80
2018-04-25T12:08:04.812Z,4.13
2018-04-25T12:10:32.289Z,4.90
2018-04-25T12:12:59.900Z,4.00
2018-04-25T12:15:27.361Z,3.93
2018-04-25T12:17:54.851Z,4.10
2018-04-25T12:20:22.501Z,4.30
2018-04-25T12:22:49.968Z,3.43
2018-04-25T12:25:17.811Z,4.60
2018-04-25T12:27:45.682Z,3.53
2018-04-25T12:30:13.158Z,4.20
2018-04-25T12:32:41.392Z,4.37
2018-04-25T12:35:08.864Z,4.23
2018-04-25T12:37:36.332Z,4.57
2018-04-25T12:40:03.828Z,3.37
2018-04-25T12:42:32.073Z,2.90
2018-04-25T12:44:59.816Z,3.07
2018-04-25T12:47:27.289Z,3.30
2018-04-25T12:49:54.793Z,3.67
2018-04-25T12:52:22.255Z,2.93
2018-04-25T12:54:49.755Z,2.60
2018-04-25T12:57:17.232Z,2.33
2018-04-25T12:59:44.707Z,1.57
2018-04-25T13:02:12.509Z,1.83
2018-04-25T13:04:39.973Z,3.37
2018-04-25T13:07:07.656Z,2.60
2018-04-25T13:09:38.037Z,2.50
2018-04-25T13:12:05.825Z,1.93
2018-04-25T13:14:33.297Z,2.50
2018-04-25T13:17:00.756Z,2.90
2018-04-25T13:19:29.760Z,2.27
2018-04-25T13:21:59.446Z,1.87
2018-04-25T13:24:27.280Z,1.90
2018-04-25T13:26:54.806Z,2.40
2018-04-25T13:29:22.281Z,1.20
2018-04-25T13:31:49.771Z,1.13
2018-04-25T13:34:18.489Z,1.50
2018-04-25T13:36:45.980Z,1.30
2018-04-25T13:39:13.440Z,1.53
2018-04-25T13:41:40.995Z,1.43
2018-04-25T13:44:08.477Z,1.43
2018-04-25T13:46:35.942Z,1.50
2018-04-25T13:49:03.535Z,1.20
2018-04-25T13:51:31.120Z,2.27
2018-04-25T13:53:58.592Z,1.60
2018-04-25T13:56:26.080Z,1.20
2018-04-25T13:58:53.745Z,1.57
2018-04-25T14:01:22.010Z,1.53
2018-04-25T14:03:49.483Z,1.70
2018-04-25T14:06:17.256Z,1.50
2018-04-25T14:08:45.172Z,1.53
2018-04-25T14:11:12.648Z,1.23
2018-04-25T14:13:40.466Z,1.60
2018-04-25T14:16:08.714Z,1.17
2018-04-25T14:18:41.882Z,1.70
2018-04-25T14:21:10.059Z,1.40
2018-04-25T14:23:37.927Z,0.87
2018-04-25T14:26:05.663Z,1.40
2018-04-25T14:28:33.261Z,1.43
2018-04-25T14:31:00.780Z,1.42
2018-04-25T14:33:29.340Z,1.20
2018-04-25T14:35:57.094Z,2.00
2018-04-25T14:38:25.229Z,1.53
2018-04-25T14:40:52.776Z,1.30
2018-04-25T14:43:20.554Z,1.40
2018-04-25T14:45:48.263Z,1.05
2018-04-25T14:48:15.982Z,0.90
2018-04-25T14:50:43.546Z,1.13
2018-04-25T14:53:11.816Z,1.27
2018-04-25T14:55:39.291Z,1.40
2018-04-25T14:58:06.766Z,1.37
2018-04-25T15:00:34.254Z,1.73
2018-04-25T15:03:01.744Z,1.00
2018-04-25T15:05:29.483Z,1.60
2018-04-25T15:07:57.016Z,1.53
2018-04-25T15:10:25.504Z,0.90
2018-04-25T15:12:53.022Z,2.15
2018-04-25T15:15:20.529Z,1.10
2018-04-25T15:17:48.749Z,1.50
2018-04-25T15:20:16.257Z,1.50
2018-04-25T15:22:43.732Z,1.47
2018-04-25T15:25:11.201Z,1.27
2018-04-25T15:27:38.685Z,1.83
2018-04-25T15:30:06.226Z,1.60
2018-04-25T15:32:34.493Z,1.53
2018-04-25T15:35:02.011Z,1.17
2018-04-25T15:37:29.476Z,1.53
2018-04-25T15:39:56.951Z,1.70
2018-04-25T15:42:25.174Z,1.20
2018-04-25T15:44:53.067Z,1.63
2018-04-25T15:47:20.577Z,1.20
2018-04-25T15:49:48.054Z,1.50
2018-04-25T15:52:16.284Z,1.30
2018-04-25T15:54:43.757Z,1.60
2018-04-25T15:57:11.213Z,1.27
2018-04-25T15:59:39.033Z,2.10
2018-04-25T16:02:06.493Z,1.33
2018-04-25T16:04:34.647Z,2.17
2018-04-25T16:07:02.372Z,1.77
2018-04-25T16:09:29.845Z,1.97
2018-04-25T16:11:57.322Z,1.30
2018-04-25T16:14:25.336Z,2.43
2018-04-25T16:16:52.906Z,2.47
2018-04-25T16:19:20.375Z,2.33
2018-04-25T16:21:47.905Z,2.00
2018-04-25T16:24:15.697Z,2.30
2018-04-25T16:26:43.153Z,1.77
2018-04-25T16:29:10.655Z,2.42
2018-04-25T16:31:38.147Z,4.13
2018-04-25T16:34:06.324Z,2.00
2018-04-25T16:36:33.840Z,2.22
2018-04-25T16:39:01.293Z,1.57
2018-04-25T16:41:28.993Z,2.10
2018-04-25T16:43:56.836Z,1.67
2018-04-25T16:46:24.327Z,1.90
2018-04-25T16:48:52.702Z,1.83
2018-04-25T16:51:20.416Z,1.93
2018-04-25T16:53:47.946Z,2.40
2018-04-25T16:56:15.593Z,2.20
2018-04-25T16:58:43.057Z,2.00
2018-04-25T17:01:10.537Z,1.87
2018-04-25T17:03:38.013Z,2.00
2018-04-25T17:06:07.079Z,1.70
2018-04-25T17:08:35.358Z,1.90
2018-04-25T17:11:02.851Z,1.50
2018-04-25T17:13:30.352Z,1.77
2018-04-25T17:15:58.594Z,1.43
2018-04-25T17:18:26.406Z,1.47
2018-04-25T17:20:54.515Z,1.87
2018-04-25T17:23:21.984Z,1.90
2018-04-25T17:25:49.460Z,1.67
2018-04-25T17:28:16.920Z,1.93
2018-04-25T17:30:44.404Z,2.20
2018-04-25T17:33:11.884Z,1.53
2018-04-25T17:35:40.131Z,1.50
2018-04-25T17:38:07.606Z,1.93
2018-04-25T17:40:35.075Z,1.70
2018-04-25T17:43:03.319Z,2.00
2018-04-25T17:45:31.322Z,1.30
2018-04-25T17:47:58.800Z,2.03
2018-04-25T17:50:26.277Z,2.37
2018-04-25T17:52:54.174Z,1.63
2018-04-25T17:55:21.640Z,2.20
2018-04-25T17:57:49.109Z,1.57
2018-04-25T18:00:16.572Z,2.37
2018-04-25T18:02:44.064Z,1.70
2018-04-25T18:05:11.551Z,2.17
2018-04-25T18:07:39.095Z,2.83
2018-04-25T18:10:06.971Z,2.87
2018-04-25T18:12:34.845Z,2.73
2018-04-25T18:15:02.666Z,2.10
2018-04-25T18:17:30.132Z,2.70
2018-04-25T18:19:57.640Z,2.97
2018-04-25T18:22:25.131Z,1.60
2018-04-25T18:24:52.807Z,1.87
2018-04-25T18:27:20.277Z,2.97
2018-04-25T18:29:47.739Z,2.40
2018-04-25T18:32:15.252Z,2.03
2018-04-25T18:34:42.714Z,2.63
2018-04-25T18:37:10.178Z,2.00
2018-04-25T18:39:37.659Z,2.20
2018-04-25T18:42:05.354Z,1.63
2018-04-25T18:44:32.825Z,1.87
2018-04-25T18:47:00.432Z,3.07
2018-04-25T18:49:31.228Z,2.10
2018-04-25T18:51:58.673Z,1.90
2018-04-25T18:54:26.157Z,1.60
2018-04-25T18:56:53.626Z,2.13
2018-04-25T18:59:21.751Z,2.20
2018-04-25T19:01:49.409Z,2.10
2018-04-25T19:04:16.888Z,1.70
2018-04-25T19:06:44.566Z,1.40
2018-04-25T19:09:12.321Z,2.67
2018-04-25T19:11:40.210Z,2.40
2018-04-25T19:14:07.672Z,1.83
2018-04-25T19:16:35.160Z,2.03
2018-04-25T19:19:02.897Z,1.70
2018-04-25T19:21:30.395Z,2.00
2018-04-25T19:23:57.860Z,1.40
2018-04-25T19:26:26.255Z,1.50
2018-04-25T19:28:53.734Z,1.63
2018-04-25T19:31:21.213Z,1.70
2018-04-25T19:33:49.045Z,1.80
2018-04-25T19:36:18.684Z,0.93
2018-04-25T19:38:46.145Z,1.50
2018-04-25T19:41:13.736Z,1.57
2018-04-25T19:43:41.204Z,1.53
2018-04-25T19:46:08.681Z,1.70
2018-04-25T19:48:36.632Z,1.30
2018-04-25T19:51:04.096Z,1.13
2018-04-25T19:53:31.574Z,1.77
2018-04-25T19:55:59.041Z,1.37
2018-04-25T19:58:26.538Z,1.37
2018-04-25T20:00:54.101Z,1.33
2018-04-25T20:03:21.572Z,1.70
2018-04-25T20:05:49.052Z,1.30
2018-04-25T20:08:16.592Z,1.10
2018-04-25T20:10:44.063Z,1.50
2018-04-25T20:13:11.520Z,1.57
2018-04-25T20:15:38.986Z,2.17
2018-04-25T20:18:06.682Z,1.00
2018-04-25T20:20:34.305Z,1.80
2018-04-25T20:23:02.220Z,1.60
2018-04-25T20:25:29.679Z,1.57
2018-04-25T20:27:57.510Z,1.30
2018-04-25T20:30:24.988Z,1.40
2018-04-25T20:32:52.457Z,1.80
2018-04-25T20:35:19.996Z,2.10
2018-04-25T20:37:48.228Z,1.33
2018-04-25T20:40:15.698Z,2.17
2018-04-25T20:42:43.460Z,1.50
2018-04-25T20:45:10.971Z,1.27
2018-04-25T20:47:38.456Z,1.63
2018-04-25T20:50:05.933Z,1.53
2018-04-25T20:52:33.633Z,1.73
2018-04-25T20:55:01.121Z,1.10
2018-04-25T20:57:28.685Z,1.80
2018-04-25T20:59:56.558Z,1.10
2018-04-25T21:02:24.054Z,1.57
2018-04-25T21:04:52.274Z,2.27
2018-04-25T21:07:19.771Z,1.57
2018-04-25T21:09:48.005Z,1.70
2018-04-25T21:12:15.810Z,1.80
2018-04-25T21:14:43.888Z,1.50
2018-04-25T21:17:11.358Z,1.70
2018-04-25T21:19:39.053Z,2.13
2018-04-25T21:22:06.520Z,1.90
2018-04-25T21:24:33.990Z,1.50
2018-04-25T21:27:05.944Z,2.30
2018-04-25T21:29:33.712Z,1.30
2018-04-25T21:32:01.239Z,2.20
2018-04-25T21:34:30.528Z,2.20
2018-04-25T21:36:58.003Z,1.30
2018-04-25T21:39:25.607Z,1.77
2018-04-25T21:41:54.001Z,1.50
2018-04-25T21:44:21.512Z,1.77
2018-04-25T21:46:48.973Z,1.83
2018-04-25T21:49:16.450Z,2.10
2018-04-25T21:51:43.938Z,1.50
2018-04-25T21:54:11.419Z,1.30
2018-04-25T21:56:38.920Z,1.63
2018-04-25T21:59:06.403Z,1.43
2018-04-25T22:01:33.902Z,1.50
2018-04-25T22:04:01.406Z,1.70
2018-04-25T22:06:28.873Z,1.93
2018-04-25T22:08:56.524Z,2.03
2018-04-25T22:11:24.169Z,1.30
2018-04-25T22:13:51.657Z,1.90
2018-04-25T22:16:19.133Z,1.97
2018-04-25T22:18:46.607Z,1.47
2018-04-25T22:21:15.435Z,2.33
2018-04-25T22:23:43.293Z,1.80
2018-04-25T22:26:10.864Z,1.30
2018-04-25T22:28:38.342Z,1.57
2018-04-25T22:31:05.809Z,1.10
2018-04-25T22:33:33.303Z,2.37
2018-04-25T22:36:01.543Z,1.73
2018-04-25T22:38:29.001Z,1.70
2018-04-25T22:40:56.492Z,1.93
2018-04-25T22:43:23.966Z,1.93
2018-04-25T22:45:51.977Z,2.17
2018-04-25T22:48:19.449Z,1.77
2018-04-25T22:50:46.916Z,1.67
2018-04-25T22:53:14.678Z,2.23
2018-04-25T22:55:42.147Z,1.70
2018-04-25T22:58:09.915Z,2.20
2018-04-25T23:00:37.379Z,1.80
2018-04-25T23:03:04.858Z,2.57
2018-04-25T23:05:32.467Z,2.43
2018-04-25T23:08:00.788Z,1.47
2018-04-25T23:10:28.193Z,1.63
2018-04-25T23:12:56.425Z,1.80
2018-04-25T23:15:24.237Z,1.40
2018-04-25T23:17:52.113Z,2.07
2018-04-25T23:20:19.568Z,1.53
2018-04-25T23:22:47.058Z,1.63
2018-04-25T23:25:14.742Z,2.20
2018-04-25T23:27:42.204Z,1.93
2018-04-25T23:30:09.684Z,2.00
2018-04-25T23:32:37.545Z,1.77
2018-04-25T23:35:05.028Z,1.77
2018-04-25T23:37:32.485Z,1.80
2018-04-25T23:39:59.968Z,2.47
2018-04-25T23:42:27.449Z,1.83
2018-04-25T23:44:55.313Z,1.80
2018-04-25T23:47:22.797Z,1.03
2018-04-25T23:49:50.483Z,2.10
2018-04-25T23:52:18.014Z,1.83
2018-04-25T23:54:45.720Z,2.93
2018-04-25T23:57:13.182Z,1.63
2018-04-25T23:59:40.675Z,2.17
